Time;durP1;ratioP1;P1;durP2;ratioP2;P2;SDS_P1;SDS_P2;PMS_P1;PMS_P2;Temp;Humidity;BMP_temperature;BMP_pressure;BME280_temperature;BME280_humidity;BME280_pressure;Samples;Min_cycle;Max_cycle;Signal;HPM_P1;HPM_P2
2023/05/14 00:01:50;;;;;;;11.00;6.70;;;12.70;99.90;;;;;;4974057;28;20031;-50
2023/05/14 00:04:18;;;;;;;10.13;5.95;;;12.80;99.90;;;;;;4974496;28;20035;-54
2023/05/14 00:06:44;;;;;;;11.02;6.32;;;12.70;99.90;;;;;;4974242;28;20142;-53
2023/05/14 00:09:10;;;;;;;10.68;6.20;;;12.70;99.90;;;;;;4975427;28;20035;-52
2023/05/14 00:11:36;;;;;;;9.98;6.60;;;12.70;99.90;;;;;;4975178;28;20038;-52
2023/05/14 00:14:02;;;;;;;10.43;6.53;;;12.70;99.90;;;;;;4974380;28;20031;-52
2023/05/14 00:16:28;;;;;;;10.35;6.75;;;12.70;99.90;;;;;;4974723;28;20034;-51
2023/05/14 00:18:53;;;;;;;8.80;6.00;;;12.70;99.90;;;;;;4973102;28;20027;-51
2023/05/14 00:21:19;;;;;;;12.60;6.90;;;12.70;99.90;;;;;;4973663;28;20027;-51
2023/05/14 00:23:45;;;;;;;11.65;6.82;;;12.60;99.90;;;;;;4973803;28;20031;-50
2023/05/14 00:26:11;;;;;;;12.77;7.50;;;12.60;99.90;;;;;;4973997;28;20031;-52
2023/05/14 00:28:38;;;;;;;11.30;7.53;;;12.60;99.90;;;;;;4972625;28;20042;-51
2023/05/14 00:31:03;;;;;;;11.50;7.47;;;12.50;99.90;;;;;;4973496;28;20081;-50
2023/05/14 00:33:29;;;;;;;10.23;6.88;;;12.50;99.90;;;;;;4972444;28;20034;-49
2023/05/14 00:35:55;;;;;;;14.52;7.40;;;12.50;99.90;;;;;;4972360;28;20035;-53
2023/05/14 00:38:22;;;;;;;12.13;6.93;;;12.50;99.90;;;;;;4973913;28;20033;-51
2023/05/14 00:40:51;;;;;;;12.13;7.18;;;12.40;99.90;;;;;;4972240;28;20391;-50
2023/05/14 00:43:19;;;;;;;10.75;7.38;;;12.40;99.90;;;;;;4973476;28;20031;-49
2023/05/14 00:45:46;;;;;;;10.55;6.70;;;12.40;99.90;;;;;;4973787;28;20106;-51
2023/05/14 00:48:12;;;;;;;10.15;6.72;;;12.30;99.90;;;;;;4972685;28;20090;-53
2023/05/14 00:50:38;;;;;;;10.87;6.67;;;12.30;99.90;;;;;;4973105;28;20025;-52
2023/05/14 00:53:09;;;;;;;12.40;7.73;;;12.30;99.90;;;;;;4972028;28;20391;-51
2023/05/14 00:55:39;;;;;;;12.20;7.45;;;12.20;99.90;;;;;;4973532;28;20650;-52
2023/05/14 00:58:12;;;;;;;11.77;7.57;;;12.20;99.90;;;;;;4973287;28;20031;-51
2023/05/14 01:00:39;;;;;;;15.23;7.60;;;12.20;99.90;;;;;;4971785;28;20023;-53
2023/05/14 01:03:06;;;;;;;13.23;7.55;;;12.10;99.90;;;;;;4973131;28;20471;-51
2023/05/14 01:05:40;;;;;;;11.77;7.70;;;12.10;99.90;;;;;;4973048;28;20086;-50
2023/05/14 01:08:29;;;;;;;13.00;8.30;;;12.00;99.90;;;;;;4971911;28;20117;-48
2023/05/14 01:11:10;;;;;;;11.70;8.10;;;12.00;99.90;;;;;;4945238;28;20050;-50
2023/05/14 01:13:57;;;;;;;13.80;8.53;;;11.90;99.90;;;;;;4972893;28;20047;-52
2023/05/14 01:16:26;;;;;;;13.57;8.20;;;11.80;99.90;;;;;;4972915;28;20050;-53
2023/05/14 01:18:55;;;;;;;13.67;8.47;;;11.80;99.90;;;;;;4973077;28;20498;-49
2023/05/14 01:21:24;;;;;;;14.67;8.47;;;11.80;99.90;;;;;;4972689;28;20114;-50
2023/05/14 01:23:49;;;;;;;14.88;8.82;;;11.80;99.90;;;;;;4972784;28;20058;-53
2023/05/14 01:26:15;;;;;;;15.13;8.80;;;11.70;99.90;;;;;;4971730;28;20038;-49
2023/05/14 01:28:42;;;;;;;14.40;8.83;;;11.70;99.90;;;;;;4972983;28;20494;-50
2023/05/14 01:31:26;;;;;;;12.80;8.87;;;11.70;99.90;;;;;;4972860;28;20041;-51
2023/05/14 01:33:55;;;;;;;14.33;9.20;;;11.60;99.90;;;;;;4972770;28;20042;-50
2023/05/14 01:36:21;;;;;;;13.15;7.80;;;11.60;99.90;;;;;;4971270;28;20035;-50
2023/05/14 01:38:50;;;;;;;13.60;8.33;;;11.60;99.90;;;;;;4971510;28;20041;-50
2023/05/14 01:41:18;;;;;;;17.17;9.80;;;11.60;99.90;;;;;;4971130;28;20062;-49
2023/05/14 01:43:44;;;;;;;15.33;9.77;;;11.60;99.90;;;;;;4971354;28;20042;-50
2023/05/14 01:46:10;;;;;;;13.20;9.47;;;11.60;99.90;;;;;;4971508;28;20074;-49
2023/05/14 01:48:36;;;;;;;14.70;9.17;;;11.60;99.90;;;;;;4972685;28;20039;-51
2023/05/14 01:51:03;;;;;;;15.17;8.97;;;11.50;99.90;;;;;;4972404;28;20030;-51
2023/05/14 01:53:28;;;;;;;13.70;8.43;;;11.60;99.90;;;;;;4972484;28;20053;-51
2023/05/14 01:55:54;;;;;;;14.70;8.63;;;11.50;99.90;;;;;;4972803;28;20499;-50
2023/05/14 01:58:20;;;;;;;14.73;8.73;;;11.50;99.90;;;;;;4971331;28;20035;-53
2023/05/14 02:00:46;;;;;;;16.33;9.40;;;11.40;99.90;;;;;;4970819;28;20626;-50
2023/05/14 02:03:11;;;;;;;14.93;9.53;;;11.40;99.90;;;;;;4971068;28;20113;-51
2023/05/14 02:05:37;;;;;;;14.97;9.57;;;11.40;99.90;;;;;;4972424;28;20041;-51
2023/05/14 02:08:03;;;;;;;16.73;10.03;;;11.40;99.90;;;;;;4972211;28;20391;-51
2023/05/14 02:10:29;;;;;;;16.53;9.20;;;11.40;99.90;;;;;;4971859;28;20035;-50
2023/05/14 02:12:55;;;;;;;19.10;9.97;;;11.40;99.90;;;;;;4972078;28;20034;-52
2023/05/14 02:15:20;;;;;;;15.10;9.70;;;11.30;99.90;;;;;;4972130;28;20031;-51
2023/05/14 02:17:46;;;;;;;16.70;10.23;;;11.30;99.90;;;;;;4972027;28;20498;-49
2023/05/14 02:20:12;;;;;;;15.13;9.20;;;11.30;99.90;;;;;;4971801;28;20035;-50
2023/05/14 02:22:40;;;;;;;16.93;9.23;;;11.20;99.90;;;;;;4970516;28;20019;-49
2023/05/14 02:25:07;;;;;;;14.25;9.43;;;11.10;99.90;;;;;;4972143;28;20035;-50
2023/05/14 02:27:33;;;;;;;15.43;9.43;;;11.00;99.90;;;;;;4970849;28;20039;-52
2023/05/14 02:29:59;;;;;;;18.43;10.00;;;10.90;99.90;;;;;;4971959;28;20038;-52
2023/05/14 02:32:26;;;;;;;17.47;10.07;;;10.90;99.90;;;;;;4971584;28;20027;-49
2023/05/14 02:34:52;;;;;;;17.07;10.10;;;10.80;99.90;;;;;;4971881;28;20480;-49
2023/05/14 02:37:18;;;;;;;15.87;10.23;;;10.80;99.90;;;;;;4970711;28;20038;-50
2023/05/14 02:39:43;;;;;;;17.63;10.00;;;10.70;99.90;;;;;;4970588;28;20034;-51
2023/05/14 02:42:09;;;;;;;18.33;10.47;;;10.70;99.90;;;;;;4971315;28;20031;-52
2023/05/14 02:44:35;;;;;;;15.30;9.50;;;10.70;99.90;;;;;;4972196;28;20178;-49
2023/05/14 02:47:01;;;;;;;15.83;9.20;;;10.60;99.90;;;;;;4971690;28;20041;-52
2023/05/14 02:49:26;;;;;;;15.63;9.33;;;10.60;99.90;;;;;;4971662;28;20031;-49
2023/05/14 02:51:55;;;;;;;16.27;9.73;;;10.60;99.90;;;;;;4971266;28;20046;-52
2023/05/14 02:54:21;;;;;;;15.88;10.00;;;10.50;99.90;;;;;;4971897;28;20034;-50
2023/05/14 02:56:47;;;;;;;16.50;9.00;;;10.60;99.90;;;;;;4971685;28;20031;-53
2023/05/14 02:59:12;;;;;;;16.30;10.00;;;10.50;99.90;;;;;;4971712;28;20499;-50
2023/05/14 03:01:38;;;;;;;14.90;9.33;;;10.50;99.90;;;;;;4969895;28;20030;-53
2023/05/14 03:04:04;;;;;;;14.57;9.30;;;10.50;99.90;;;;;;4970417;28;20451;-49
2023/05/14 03:06:30;;;;;;;18.17;10.00;;;10.50;99.90;;;;;;4970453;28;20043;-52
2023/05/14 03:08:56;;;;;;;16.77;9.80;;;10.50;99.90;;;;;;4970476;28;20042;-52
2023/05/14 03:11:22;;;;;;;13.70;9.13;;;10.40;99.90;;;;;;4971466;28;20396;-51
2023/05/14 03:13:47;;;;;;;16.93;10.20;;;10.30;99.90;;;;;;4974072;28;20110;-51
2023/05/14 03:16:13;;;;;;;15.83;9.57;;;10.40;99.90;;;;;;4973883;28;20034;-50
2023/05/14 03:18:39;;;;;;;16.20;9.80;;;10.40;99.90;;;;;;4973842;28;20546;-50
2023/05/14 03:21:07;;;;;;;16.90;9.13;;;10.30;99.90;;;;;;4973571;28;20027;-49
2023/05/14 03:23:34;;;;;;;18.47;10.37;;;10.30;99.90;;;;;;4974842;28;20534;-53
2023/05/14 03:26:00;;;;;;;16.33;10.03;;;10.30;99.90;;;;;;4975178;28;20027;-53
2023/05/14 03:28:26;;;;;;;15.77;9.97;;;10.20;99.90;;;;;;4975038;28;20066;-50
2023/05/14 03:30:52;;;;;;;14.13;9.50;;;10.20;99.90;;;;;;4974684;28;20062;-50
2023/05/14 03:33:18;;;;;;;18.80;10.23;;;10.30;99.90;;;;;;4974791;28;20038;-50
2023/05/14 03:35:44;;;;;;;15.93;10.40;;;10.30;99.90;;;;;;4974878;28;20030;-53
2023/05/14 03:38:10;;;;;;;15.93;9.63;;;10.30;99.90;;;;;;4973675;28;20031;-49
2023/05/14 03:40:35;;;;;;;16.57;9.43;;;10.30;99.90;;;;;;4974603;28;20065;-53
2023/05/14 03:43:01;;;;;;;17.13;10.17;;;10.30;99.90;;;;;;4974550;28;20031;-49
2023/05/14 03:45:29;;;;;;;16.63;10.27;;;10.20;99.90;;;;;;4974640;28;20038;-50
2023/05/14 03:47:57;;;;;;;15.10;9.80;;;10.20;99.90;;;;;;4974771;28;20263;-49
2023/05/14 03:50:24;;;;;;;15.47;10.23;;;10.10;99.90;;;;;;4973109;28;20086;-52
2023/05/14 03:52:51;;;;;;;17.53;10.47;;;10.20;99.90;;;;;;4973159;28;20484;-50
2023/05/14 03:55:18;;;;;;;15.73;10.40;;;10.20;99.90;;;;;;4974538;28;20042;-49
2023/05/14 03:57:44;;;;;;;17.53;10.40;;;10.20;99.90;;;;;;4974432;28;20122;-53
2023/05/14 04:00:10;;;;;;;20.17;10.80;;;10.20;99.90;;;;;;4972807;28;20118;-52
2023/05/14 04:02:42;;;;;;;17.40;10.60;;;10.30;99.90;;;;;;4974297;28;20066;-51
2023/05/14 04:05:08;;;;;;;17.87;10.13;;;10.20;99.90;;;;;;4972982;28;20062;-50
2023/05/14 04:07:34;;;;;;;18.73;10.53;;;10.30;99.90;;;;;;4973098;28;20070;-51
2023/05/14 04:10:00;;;;;;;18.40;11.10;;;10.20;99.90;;;;;;4974239;28;20027;-51
2023/05/14 04:12:26;;;;;;;20.60;10.83;;;10.20;99.90;;;;;;4973742;28;20034;-53
2023/05/14 04:14:52;;;;;;;16.37;10.80;;;10.30;99.90;;;;;;4972900;28;20122;-49
2023/05/14 04:17:18;;;;;;;19.70;10.50;;;10.30;99.90;;;;;;4972602;28;20030;-53
2023/05/14 04:19:43;;;;;;;15.83;9.97;;;10.30;99.90;;;;;;4974065;28;20090;-51
2023/05/14 04:22:09;;;;;;;20.13;11.00;;;10.30;99.90;;;;;;4972234;28;20053;-50
2023/05/14 04:24:35;;;;;;;17.77;11.30;;;10.40;99.90;;;;;;4973945;28;20475;-52
2023/05/14 04:27:00;;;;;;;16.53;10.13;;;10.30;99.90;;;;;;4973951;28;20034;-51
2023/05/14 04:29:26;;;;;;;16.27;10.37;;;10.30;99.90;;;;;;4972909;28;20495;-51
2023/05/14 04:31:52;;;;;;;18.33;10.93;;;10.30;99.90;;;;;;4973398;28;20097;-50
2023/05/14 04:34:18;;;;;;;19.13;10.53;;;10.40;99.90;;;;;;4973774;28;20166;-51
2023/05/14 04:36:44;;;;;;;16.80;10.27;;;10.50;99.90;;;;;;4973714;28;20074;-50
2023/05/14 04:39:11;;;;;;;17.83;11.27;;;10.60;99.90;;;;;;4973796;28;20504;-52
2023/05/14 04:41:37;;;;;;;19.80;11.20;;;10.70;99.90;;;;;;4973134;28;20300;-50
2023/05/14 04:44:03;;;;;;;19.37;11.23;;;10.70;99.90;;;;;;4973512;28;20038;-50
2023/05/14 04:46:29;;;;;;;16.97;10.97;;;10.80;99.90;;;;;;4973446;28;20030;-49
2023/05/14 04:48:55;;;;;;;19.10;11.47;;;10.80;99.90;;;;;;4973538;28;20030;-51
2023/05/14 04:51:21;;;;;;;17.27;10.20;;;10.70;99.90;;;;;;4973087;28;20042;-50
2023/05/14 04:53:47;;;;;;;18.10;10.63;;;10.70;99.90;;;;;;4973250;28;20475;-49
2023/05/14 04:56:13;;;;;;;19.13;11.03;;;10.80;99.90;;;;;;4973230;28;20162;-50
2023/05/14 04:58:39;;;;;;;17.97;10.77;;;10.80;99.90;;;;;;4973317;28;20535;-52
2023/05/14 05:01:05;;;;;;;15.83;10.23;;;10.80;99.90;;;;;;4973167;28;20379;-53
2023/05/14 05:03:31;;;;;;;18.50;10.40;;;10.90;99.90;;;;;;4973046;28;20387;-49
2023/05/14 05:05:56;;;;;;;18.47;10.80;;;10.90;99.90;;;;;;4973150;28;20038;-52
2023/05/14 05:08:22;;;;;;;17.80;11.03;;;10.90;99.90;;;;;;4973101;28;20031;-49
2023/05/14 05:10:48;;;;;;;17.30;10.67;;;11.00;99.90;;;;;;4972804;28;20023;-49
2023/05/14 05:13:15;;;;;;;17.37;10.13;;;10.90;99.90;;;;;;4972856;28;20490;-50
2023/05/14 05:15:42;;;;;;;17.10;10.47;;;10.90;99.90;;;;;;4972940;28;20109;-49
2023/05/14 05:18:08;;;;;;;16.40;10.67;;;10.80;99.90;;;;;;4973169;28;20038;-49
2023/05/14 05:20:33;;;;;;;17.03;10.97;;;10.80;99.90;;;;;;4972724;28;20037;-49
2023/05/14 05:22:59;;;;;;;17.43;10.17;;;10.70;99.90;;;;;;4972734;28;20476;-49
2023/05/14 05:25:25;;;;;;;19.13;11.67;;;10.60;99.90;;;;;;4972725;28;20023;-49
2023/05/14 05:27:51;;;;;;;18.13;10.70;;;10.60;99.90;;;;;;4973084;28;20031;-49
2023/05/14 05:30:17;;;;;;;18.40;11.03;;;10.60;99.90;;;;;;4972473;28;20057;-50
2023/05/14 05:32:43;;;;;;;18.37;10.97;;;10.60;99.90;;;;;;4972404;28;20050;-53
2023/05/14 05:35:08;;;;;;;18.30;11.30;;;10.70;99.90;;;;;;4972229;28;20034;-51
2023/05/14 05:37:34;;;;;;;16.30;10.40;;;10.70;99.90;;;;;;4972716;28;20438;-53
2023/05/14 05:40:00;;;;;;;19.63;11.47;;;10.80;99.90;;;;;;4972637;28;20110;-50
2023/05/14 05:42:26;;;;;;;20.53;10.60;;;10.90;99.90;;;;;;4972372;28;20046;-53
2023/05/14 05:44:51;;;;;;;16.53;10.20;;;10.90;99.90;;;;;;4972409;28;20046;-53
2023/05/14 05:47:17;;;;;;;16.20;9.97;;;11.10;99.90;;;;;;4972561;28;20376;-54
2023/05/14 05:49:43;;;;;;;15.10;10.07;;;11.30;99.90;;;;;;4972697;28;20031;-51
2023/05/14 05:52:09;;;;;;;16.17;10.47;;;11.40;99.90;;;;;;4971966;28;20580;-51
2023/05/14 05:54:34;;;;;;;14.50;9.87;;;11.50;99.90;;;;;;4972345;28;20034;-53
2023/05/14 05:57:00;;;;;;;15.30;9.77;;;11.60;99.90;;;;;;4972329;28;20037;-50
2023/05/14 05:59:26;;;;;;;16.43;10.07;;;11.80;99.90;;;;;;4972236;28;20030;-51
2023/05/14 06:01:52;;;;;;;15.43;10.10;;;11.90;99.90;;;;;;4971843;28;20491;-48
2023/05/14 06:04:17;;;;;;;17.98;10.98;;;12.00;99.90;;;;;;4972378;28;20031;-49
2023/05/14 06:06:43;;;;;;;18.92;10.57;;;12.20;99.90;;;;;;4972012;28;20045;-49
2023/05/14 06:09:09;;;;;;;16.48;10.98;;;12.30;99.90;;;;;;4972068;28;20038;-52
2023/05/14 06:11:35;;;;;;;18.45;10.57;;;12.40;99.90;;;;;;4971659;28;20039;-49
2023/05/14 06:14:00;;;;;;;16.90;10.77;;;12.60;99.90;;;;;;4971986;28;20031;-52
2023/05/14 06:16:26;;;;;;;16.60;11.13;;;12.70;99.90;;;;;;4971987;28;20451;-52
2023/05/14 06:18:53;;;;;;;14.30;9.45;;;12.90;99.90;;;;;;4972129;28;20037;-50
2023/05/14 06:21:19;;;;;;;15.90;10.30;;;13.10;99.90;;;;;;4972172;28;20082;-51
2023/05/14 06:23:44;;;;;;;16.70;10.05;;;13.30;99.90;;;;;;4971736;28;20026;-53
2023/05/14 06:26:10;;;;;;;16.80;9.95;;;13.40;99.90;;;;;;4972088;28;20300;-50
2023/05/14 06:28:36;;;;;;;15.00;9.60;;;13.60;99.90;;;;;;4972263;28;20049;-49
2023/05/14 06:31:01;;;;;;;15.18;9.80;;;13.80;99.90;;;;;;4971800;28;20152;-53
2023/05/14 06:33:30;;;;;;;16.15;10.60;;;13.80;99.90;;;;;;4971846;28;20047;-50
2023/05/14 06:35:58;;;;;;;14.68;9.80;;;13.90;99.90;;;;;;4970934;28;20023;-51
2023/05/14 06:38:24;;;;;;;18.55;10.10;;;13.90;99.90;;;;;;4971946;28;20026;-52
2023/05/14 06:40:51;;;;;;;13.13;8.73;;;13.90;99.90;;;;;;4971731;28;20035;-49
2023/05/14 06:43:17;;;;;;;13.80;8.57;;;14.00;99.90;;;;;;4971783;28;20061;-50
2023/05/14 06:45:43;;;;;;;13.80;8.57;;;14.30;99.90;;;;;;4972491;28;20054;-52
2023/05/14 06:48:09;;;;;;;12.60;8.80;;;14.50;99.90;;;;;;4975319;28;20400;-51
2023/05/14 06:50:35;;;;;;;14.82;8.90;;;14.70;99.90;;;;;;4975606;28;20038;-52
2023/05/14 06:53:00;;;;;;;13.38;8.25;;;15.00;99.90;;;;;;4975464;28;20038;-52
2023/05/14 06:55:26;;;;;;;15.23;9.52;;;15.30;99.90;;;;;;4975645;28;20170;-54
2023/05/14 06:57:52;;;;;;;15.07;9.55;;;15.50;99.90;;;;;;4975672;28;20319;-54
2023/05/14 07:00:18;;;;;;;16.70;10.27;;;15.60;99.90;;;;;;4975516;28;20389;-51
2023/05/14 07:02:44;;;;;;;16.20;10.45;;;15.70;99.90;;;;;;4975404;28;20030;-52
2023/05/14 07:05:10;;;;;;;13.57;9.88;;;15.80;99.90;;;;;;4975620;28;20403;-50
2023/05/14 07:07:35;;;;;;;15.43;8.93;;;15.90;99.90;;;;;;4976013;28;20031;-50
2023/05/14 07:10:01;;;;;;;15.13;9.25;;;16.10;99.90;;;;;;4975643;28;20480;-49
2023/05/14 07:12:27;;;;;;;12.30;9.02;;;16.30;99.90;;;;;;4975001;28;20499;-50
2023/05/14 07:14:53;;;;;;;14.70;9.00;;;16.30;99.90;;;;;;4975328;28;20034;-50
2023/05/14 07:17:18;;;;;;;10.73;7.43;;;16.40;99.90;;;;;;4975244;28;20471;-49
2023/05/14 07:19:44;;;;;;;8.05;6.22;;;16.50;99.90;;;;;;4975362;28;20105;-50
2023/05/14 07:22:10;;;;;;;8.88;6.80;;;16.70;99.90;;;;;;4974610;28;20427;-49
2023/05/14 07:24:35;;;;;;;10.70;6.80;;;17.00;99.90;;;;;;4975342;28;20027;-48
2023/05/14 07:27:01;;;;;;;10.27;7.47;;;17.20;99.90;;;;;;4975050;28;20066;-50
2023/05/14 07:29:28;;;;;;;10.98;7.05;;;17.30;99.90;;;;;;4975361;28;20041;-49
2023/05/14 07:31:54;;;;;;;10.38;6.68;;;17.40;99.90;;;;;;4974681;28;20037;-49
2023/05/14 07:34:20;;;;;;;10.20;6.57;;;17.40;99.90;;;;;;4975631;28;20037;-52
2023/05/14 07:36:46;;;;;;;12.45;7.38;;;17.60;99.90;;;;;;4974976;28;20121;-53
2023/05/14 07:39:12;;;;;;;11.35;6.18;;;17.90;99.90;;;;;;4975341;28;20071;-51
2023/05/14 07:41:37;;;;;;;8.20;5.95;;;18.00;99.90;;;;;;4974566;28;20631;-49
2023/05/14 07:44:04;;;;;;;10.38;5.68;;;18.00;99.90;;;;;;4975155;28;20035;-49
2023/05/14 07:46:29;;;;;;;9.10;5.07;;;18.20;99.90;;;;;;4975166;28;20030;-51
2023/05/14 07:48:55;;;;;;;7.15;4.97;;;18.20;99.90;;;;;;4975016;28;20080;-53
2023/05/14 07:51:21;;;;;;;6.32;4.30;;;18.40;99.90;;;;;;4974436;28;20502;-52
2023/05/14 07:53:47;;;;;;;5.80;4.10;;;18.60;99.90;;;;;;4974694;28;20046;-49
2023/05/14 07:56:13;;;;;;;7.45;4.05;;;18.80;99.90;;;;;;4974455;28;20030;-53
2023/05/14 07:58:38;;;;;;;9.50;4.68;;;19.00;99.90;;;;;;4974609;28;20085;-50
2023/05/14 08:01:05;;;;;;;7.80;4.32;;;19.00;99.90;;;;;;4974202;28;20027;-51
2023/05/14 08:03:32;;;;;;;6.95;4.80;;;19.00;99.90;;;;;;4974327;28;20030;-53
2023/05/14 08:05:58;;;;;;;7.63;4.60;;;19.00;99.90;;;;;;4974326;28;20077;-49
2023/05/14 08:08:24;;;;;;;6.00;4.07;;;19.00;99.90;;;;;;4974601;28;20062;-51
2023/05/14 08:10:50;;;;;;;8.15;4.90;;;19.10;99.90;;;;;;4974100;28;20171;-50
2023/05/14 08:13:15;;;;;;;6.95;4.63;;;19.10;99.90;;;;;;4974106;28;20039;-51
2023/05/14 08:15:41;;;;;;;6.10;4.18;;;19.20;99.90;;;;;;4974231;28;20125;-49
2023/05/14 08:18:07;;;;;;;6.43;4.43;;;19.40;99.90;;;;;;4974136;28;20035;-49
2023/05/14 08:20:32;;;;;;;5.97;3.80;;;19.40;99.90;;;;;;4973844;28;20026;-50
2023/05/14 08:22:58;;;;;;;5.88;3.95;;;19.40;99.90;;;;;;4973861;28;20034;-53
2023/05/14 08:25:24;;;;;;;6.40;4.32;;;19.60;99.90;;;;;;4973894;28;20430;-53
2023/05/14 08:27:50;;;;;;;6.50;4.30;;;19.60;99.90;;;;;;4973926;28;20078;-49
2023/05/14 08:30:16;;;;;;;7.57;4.43;;;19.50;99.90;;;;;;4973755;28;20023;-50
2023/05/14 08:32:42;;;;;;;5.95;2.97;;;19.50;99.90;;;;;;4973627;28;20113;-51
2023/05/14 08:35:08;;;;;;;5.57;3.08;;;19.60;99.90;;;;;;4973807;28;20126;-50
2023/05/14 08:37:34;;;;;;;4.45;2.90;;;19.80;99.30;;;;;;4973662;28;20396;-51
2023/05/14 08:39:59;;;;;;;6.38;2.75;;;19.90;98.60;;;;;;4973584;28;20143;-50
2023/05/14 08:42:27;;;;;;;4.07;2.50;;;20.00;99.90;;;;;;4973329;28;20034;-49
2023/05/14 08:45:01;;;;;;;3.05;2.05;;;20.10;99.20;;;;;;4974069;28;20059;-49
2023/05/14 08:47:29;;;;;;;3.42;2.30;;;20.20;97.30;;;;;;4973533;28;20046;-50
2023/05/14 08:49:57;;;;;;;3.58;2.42;;;20.20;96.50;;;;;;4973485;28;20114;-53
2023/05/14 08:52:23;;;;;;;4.55;2.38;;;20.30;96.80;;;;;;4971988;28;20031;-49
2023/05/14 08:54:52;;;;;;;3.35;2.53;;;20.20;94.50;;;;;;4973550;28;20181;-50
2023/05/14 08:57:19;;;;;;;;;;;20.20;95.10;;;;;;4974088;28;20169;-53
2023/05/14 08:59:45;;;;;;;4.40;2.10;;;20.20;95.00;;;;;;4973406;28;19910;-52
2023/05/14 09:02:15;;;;;;;5.40;3.05;;;20.30;95.60;;;;;;4972789;28;20491;-52
2023/05/14 09:04:41;;;;;;;3.70;2.47;;;20.30;94.00;;;;;;4973316;28;20105;-51
2023/05/14 09:07:07;;;;;;;11.15;5.80;;;20.40;94.20;;;;;;4973099;28;20039;-51
2023/05/14 09:09:34;;;;;;;3.90;2.67;;;20.50;94.30;;;;;;4972260;28;20044;-53
2023/05/14 09:12:00;;;;;;;4.28;2.72;;;20.70;93.60;;;;;;4973077;28;20035;-53
2023/05/14 09:14:26;;;;;;;3.88;2.67;;;20.80;96.70;;;;;;4973030;28;20038;-51
2023/05/14 09:16:53;;;;;;;5.30;2.13;;;20.90;94.20;;;;;;4972897;28;20037;-50
2023/05/14 09:19:20;;;;;;;6.03;2.50;;;20.80;93.20;;;;;;4973017;28;20459;-52
2023/05/14 09:21:47;;;;;;;3.95;2.40;;;20.90;94.30;;;;;;4972520;28;20101;-52
2023/05/14 09:24:24;;;;;;;3.87;2.33;;;21.00;92.40;;;;;;4972888;28;20027;-51
2023/05/14 09:26:52;;;;;;;3.97;2.58;;;21.10;92.60;;;;;;4972929;28;20390;-53
2023/05/14 09:29:17;;;;;;;5.65;2.30;;;21.20;92.40;;;;;;4973537;28;20075;-49
2023/05/14 09:31:43;;;;;;;4.63;2.35;;;21.20;91.70;;;;;;4972347;28;20081;-49
2023/05/14 09:34:09;;;;;;;4.95;2.30;;;21.30;91.80;;;;;;4972951;28;20089;-49
2023/05/14 09:36:35;;;;;;;4.88;2.67;;;21.10;93.00;;;;;;4972681;28;20376;-50
2023/05/14 09:39:04;;;;;;;4.43;2.45;;;21.20;91.90;;;;;;4972650;28;20058;-50
2023/05/14 09:41:30;;;;;;;4.85;1.98;;;21.10;89.90;;;;;;4972315;28;20067;-51
2023/05/14 09:43:56;;;;;;;3.85;2.30;;;21.10;90.10;;;;;;4972549;28;20462;-50
2023/05/14 09:46:22;;;;;;;3.45;1.95;;;21.20;90.90;;;;;;4972893;28;20023;-50
2023/05/14 09:48:48;;;;;;;3.33;2.20;;;21.20;92.20;;;;;;4972473;28;20419;-50
2023/05/14 09:51:16;;;;;;;3.80;2.65;;;21.40;85.20;;;;;;4972120;28;20035;-50
2023/05/14 09:53:43;;;;;;;3.30;2.22;;;21.40;87.00;;;;;;4972100;28;20058;-51
2023/05/14 09:56:09;;;;;;;3.45;2.15;;;21.40;82.40;;;;;;4972210;28;20399;-51
2023/05/14 09:58:35;;;;;;;3.33;2.25;;;21.50;82.80;;;;;;4972296;28;20039;-49
2023/05/14 10:01:01;;;;;;;3.58;2.20;;;21.40;83.60;;;;;;4972051;28;20125;-52
2023/05/14 10:03:29;;;;;;;3.30;2.10;;;21.50;83.60;;;;;;4972071;28;20035;-52
2023/05/14 10:06:00;;;;;;;3.47;2.10;;;21.50;84.20;;;;;;4972272;28;20038;-53
2023/05/14 10:08:40;;;;;;;6.93;3.95;;;21.40;84.50;;;;;;4972095;28;20488;-53
2023/05/14 10:11:14;;;;;;;3.22;2.20;;;21.60;81.50;;;;;;4971881;28;20480;-52
2023/05/14 10:13:45;;;;;;;4.10;2.80;;;21.50;81.30;;;;;;4972183;28;20041;-51
2023/05/14 10:16:21;;;;;;;3.72;2.20;;;21.70;90.90;;;;;;4972101;28;20041;-51
2023/05/14 10:18:51;;;;;;;3.10;2.03;;;21.70;83.00;;;;;;4970859;28;20031;-49
2023/05/14 10:21:20;;;;;;;2.78;2.00;;;21.80;81.40;;;;;;4971564;28;20046;-51
2023/05/14 10:23:47;;;;;;;3.83;1.98;;;21.80;81.20;;;;;;4971773;28;20078;-50
2023/05/14 10:26:14;;;;;;;3.15;1.88;;;21.90;76.20;;;;;;4972055;28;20472;-50
2023/05/14 10:28:40;;;;;;;3.53;2.17;;;21.80;75.40;;;;;;4972257;28;20045;-53
2023/05/14 10:31:08;;;;;;;3.30;1.67;;;21.90;78.00;;;;;;4971677;28;20042;-51
2023/05/14 10:33:49;;;;;;;4.20;2.10;;;22.10;76.80;;;;;;4971682;28;20034;-51
2023/05/14 10:36:15;;;;;;;4.13;2.35;;;22.30;77.30;;;;;;4971873;28;20086;-50
2023/05/14 10:38:41;;;;;;;3.03;1.90;;;22.30;75.30;;;;;;4971806;28;20400;-51
2023/05/14 10:41:14;;;;;;;6.40;2.05;;;22.40;70.80;;;;;;4971779;28;20146;-51
2023/05/14 10:43:41;;;;;;;3.75;2.00;;;22.40;71.50;;;;;;4971804;28;20120;-49
2023/05/14 10:46:08;;;;;;;3.78;2.00;;;22.40;72.80;;;;;;4971751;28;20089;-53
2023/05/14 10:48:35;;;;;;;5.97;2.17;;;22.50;69.30;;;;;;4971976;28;20037;-52
2023/05/14 10:51:01;;;;;;;3.45;2.08;;;22.70;71.40;;;;;;4971596;28;20051;-52
2023/05/14 10:53:47;;;;;;;3.53;1.98;;;22.70;70.90;;;;;;4971495;28;20118;-53
2023/05/14 10:56:13;;;;;;;3.03;1.75;;;22.90;66.30;;;;;;4971377;28;20522;-51
2023/05/14 10:58:41;;;;;;;3.97;1.98;;;22.90;67.20;;;;;;4971726;28;20051;-51
2023/05/14 11:01:09;;;;;;;2.70;1.77;;;22.80;69.20;;;;;;4971461;28;20029;-51
2023/05/14 11:03:40;;;;;;;3.05;1.85;;;22.70;69.30;;;;;;4971749;28;20031;-52
2023/05/14 11:06:07;;;;;;;2.42;1.67;;;22.40;64.60;;;;;;4971847;28;20502;-53
2023/05/14 11:08:33;;;;;;;2.80;1.98;;;22.20;66.40;;;;;;4971587;28;20035;-52
2023/05/14 11:10:59;;;;;;;3.15;1.80;;;22.10;69.10;;;;;;4971460;28;20034;-51
2023/05/14 11:13:27;;;;;;;2.70;1.70;;;22.10;66.50;;;;;;4971403;28;20026;-51
2023/05/14 11:15:54;;;;;;;4.53;1.77;;;22.20;71.80;;;;;;4971709;28;20045;-52
2023/05/14 11:18:37;;;;;;;2.60;1.80;;;22.20;69.40;;;;;;4971662;28;20411;-50
2023/05/14 11:21:03;;;;;;;4.32;1.83;;;22.20;68.60;;;;;;4971374;28;20498;-53
2023/05/14 11:23:29;;;;;;;4.07;1.95;;;22.20;68.00;;;;;;4971474;28;20042;-51
2023/05/14 11:25:55;;;;;;;4.18;1.90;;;22.20;66.80;;;;;;4971430;28;20235;-52
2023/05/14 11:28:22;;;;;;;3.88;1.90;;;22.20;63.50;;;;;;4971709;28;20062;-51
2023/05/14 11:30:52;;;;;;;2.88;1.70;;;22.20;62.30;;;;;;4971456;28;20381;-54
2023/05/14 11:33:18;;;;;;;2.55;1.58;;;22.10;64.90;;;;;;4973019;28;20510;-53
2023/05/14 11:35:45;;;;;;;3.47;1.80;;;22.10;64.30;;;;;;4975086;28;20085;-53
2023/05/14 11:38:18;;;;;;;3.50;1.52;;;22.10;64.80;;;;;;4975051;28;20031;-50
2023/05/14 11:40:57;;;;;;;3.67;2.10;;;22.20;57.40;;;;;;4975276;28;20035;-51
2023/05/14 11:43:25;;;;;;;2.92;1.83;;;22.30;60.90;;;;;;4975030;28;20027;-52
2023/05/14 11:45:51;;;;;;;3.00;1.90;;;22.40;62.60;;;;;;4975352;28;20440;-55
2023/05/14 11:48:21;;;;;;;2.25;1.58;;;22.40;59.90;;;;;;4974926;28;20027;-51
2023/05/14 11:50:48;;;;;;;3.33;1.80;;;22.50;59.40;;;;;;4974437;28;20035;-52
2023/05/14 11:53:33;;;;;;;2.33;1.80;;;22.50;59.70;;;;;;4974494;28;20049;-50
2023/05/14 11:55:59;;;;;;;3.05;1.98;;;22.40;58.60;;;;;;4974673;28;20042;-54
2023/05/14 11:58:25;;;;;;;3.75;1.80;;;22.40;58.30;;;;;;4974571;28;20089;-51
2023/05/14 12:00:54;;;;;;;3.40;1.77;;;22.30;57.50;;;;;;4974722;28;20550;-53
2023/05/14 12:03:24;;;;;;;3.10;1.75;;;22.30;58.90;;;;;;4974248;28;20027;-54
2023/05/14 12:06:01;;;;;;;3.08;1.67;;;22.30;59.40;;;;;;4974380;28;20520;-52
2023/05/14 12:08:31;;;;;;;3.80;2.10;;;22.30;58.70;;;;;;4974404;28;20530;-53
2023/05/14 12:10:58;;;;;;;6.43;1.90;;;22.30;60.90;;;;;;4974166;28;20623;-53
2023/05/14 12:13:26;;;;;;;4.32;2.05;;;22.20;60.60;;;;;;4972901;28;20034;-54
2023/05/14 12:16:00;;;;;;;2.78;1.83;;;22.20;62.40;;;;;;4974120;28;20452;-53
2023/05/14 12:18:31;;;;;;;2.83;1.70;;;22.30;65.40;;;;;;4974452;28;20043;-53
2023/05/14 12:21:08;;;;;;;3.63;1.77;;;22.40;62.00;;;;;;4973778;28;20114;-50
2023/05/14 12:23:34;;;;;;;3.67;1.90;;;22.50;61.90;;;;;;4974310;28;20041;-52
2023/05/14 12:26:07;;;;;;;2.17;1.63;;;22.60;61.40;;;;;;4974077;28;20027;-52
2023/05/14 12:28:34;;;;;;;4.85;2.10;;;22.70;61.20;;;;;;4973953;28;20039;-54
2023/05/14 12:30:59;;;;;;;2.10;1.52;;;22.80;64.00;;;;;;4974177;28;20454;-52
2023/05/14 12:33:26;;;;;;;4.97;1.98;;;22.80;59.20;;;;;;4974196;28;20109;-51
2023/05/14 12:35:53;;;;;;;3.63;1.65;;;22.80;58.40;;;;;;4973899;28;20034;-54
2023/05/14 12:38:19;;;;;;;3.42;1.98;;;22.90;61.30;;;;;;4973767;28;20042;-54